sensor_id;sensor_type;location;lat;lon;timestamp;temperature;humidity
78461;SHT31;67755;51.986;5.696;2023-05-10T00:01:01;18.2;65.1
78461;SHT31;67755;51.986;5.696;2023-05-10T00:03:30;18.2;65.2
78461;SHT31;67755;51.986;5.696;2023-05-10T00:06:00;18.2;65.1
78461;SHT31;67755;51.986;5.696;2023-05-10T00:08:30;18.2;65.2
78461;SHT31;67755;51.986;5.696;2023-05-10T00:10:59;18.2;65.2
78461;SHT31;67755;51.986;5.696;2023-05-10T00:13:29;18.2;65.2
78461;SHT31;67755;51.986;5.696;2023-05-10T00:15:58;18.2;65.3
78461;SHT31;67755;51.986;5.696;2023-05-10T00:18:28;18.2;65.4
78461;SHT31;67755;51.986;5.696;2023-05-10T00:20:58;18.2;65.3
78461;SHT31;67755;51.986;5.696;2023-05-10T00:23:27;18.2;65.3
78461;SHT31;67755;51.986;5.696;2023-05-10T00:25:57;18.2;65.4
78461;SHT31;67755;51.986;5.696;2023-05-10T00:28:27;18.2;65.4
78461;SHT31;67755;51.986;5.696;2023-05-10T00:30:56;18.2;65.3
78461;SHT31;67755;51.986;5.696;2023-05-10T00:33:28;18.2;65.3
78461;SHT31;67755;51.986;5.696;2023-05-10T00:35:58;18.2;65.5
78461;SHT31;67755;51.986;5.696;2023-05-10T00:38:27;18.2;65.2
78461;SHT31;67755;51.986;5.696;2023-05-10T00:40:57;18.2;65.4
78461;SHT31;67755;51.986;5.696;2023-05-10T00:43:26;18.2;65.4
78461;SHT31;67755;51.986;5.696;2023-05-10T00:45:56;18.2;65.5
78461;SHT31;67755;51.986;5.696;2023-05-10T00:48:26;18.2;65.4
78461;SHT31;67755;51.986;5.696;2023-05-10T00:50:56;18.2;65.4
78461;SHT31;67755;51.986;5.696;2023-05-10T00:53:28;18.1;65.6
78461;SHT31;67755;51.986;5.696;2023-05-10T00:56:01;18.1;65.6
78461;SHT31;67755;51.986;5.696;2023-05-10T00:58:31;18.1;65.8
78461;SHT31;67755;51.986;5.696;2023-05-10T01:01:01;18.1;65.7
78461;SHT31;67755;51.986;5.696;2023-05-10T01:03:31;18.1;65.9
78461;SHT31;67755;51.986;5.696;2023-05-10T01:06:01;18.1;65.9
78461;SHT31;67755;51.986;5.696;2023-05-10T01:08:31;18.1;65.9
78461;SHT31;67755;51.986;5.696;2023-05-10T01:11:01;18.1;66.1
78461;SHT31;67755;51.986;5.696;2023-05-10T01:13:34;18.1;66.2
78461;SHT31;67755;51.986;5.696;2023-05-10T01:16:06;18.1;66.3
78461;SHT31;67755;51.986;5.696;2023-05-10T01:18:38;18.1;66.3
78461;SHT31;67755;51.986;5.696;2023-05-10T01:21:17;18.1;66.5
78461;SHT31;67755;51.986;5.696;2023-05-10T01:24:12;18.1;66.6
78461;SHT31;67755;51.986;5.696;2023-05-10T01:29:17;18.1;66.7
78461;SHT31;67755;51.986;5.696;2023-05-10T01:33:10;18.1;66.8
78461;SHT31;67755;51.986;5.696;2023-05-10T01:35:45;18.1;66.8
78461;SHT31;67755;51.986;5.696;2023-05-10T01:38:20;18.1;66.7
78461;SHT31;67755;51.986;5.696;2023-05-10T01:41:03;18.1;66.8
78461;SHT31;67755;51.986;5.696;2023-05-10T01:43:46;18.1;66.5
78461;SHT31;67755;51.986;5.696;2023-05-10T01:46:27;18.1;66.4
78461;SHT31;67755;51.986;5.696;2023-05-10T01:48:59;18.1;66.6
78461;SHT31;67755;51.986;5.696;2023-05-10T01:51:38;18.1;66.8
78461;SHT31;67755;51.986;5.696;2023-05-10T01:54:10;18.1;66.7
78461;SHT31;67755;51.986;5.696;2023-05-10T01:56:44;18.1;66.7
78461;SHT31;67755;51.986;5.696;2023-05-10T01:59:18;18.1;66.8
78461;SHT31;67755;51.986;5.696;2023-05-10T02:01:50;18.1;66.8
78461;SHT31;67755;51.986;5.696;2023-05-10T02:04:22;18.1;66.7
78461;SHT31;67755;51.986;5.696;2023-05-10T02:06:55;18.1;66.7
78461;SHT31;67755;51.986;5.696;2023-05-10T02:09:29;18.1;66.5
78461;SHT31;67755;51.986;5.696;2023-05-10T02:12:02;18.1;66.5
78461;SHT31;67755;51.986;5.696;2023-05-10T02:14:37;18.1;66.3
78461;SHT31;67755;51.986;5.696;2023-05-10T02:17:09;18.1;66.5
78461;SHT31;67755;51.986;5.696;2023-05-10T02:19:40;18.1;66.5
78461;SHT31;67755;51.986;5.696;2023-05-10T02:22:12;18.1;66.7
78461;SHT31;67755;51.986;5.696;2023-05-10T02:24:43;18.1;66.5
78461;SHT31;67755;51.986;5.696;2023-05-10T02:27:15;18.0;66.7
78461;SHT31;67755;51.986;5.696;2023-05-10T02:29:46;18.0;66.5
78461;SHT31;67755;51.986;5.696;2023-05-10T02:32:17;18.0;66.4
78461;SHT31;67755;51.986;5.696;2023-05-10T02:34:48;18.0;66.6
78461;SHT31;67755;51.986;5.696;2023-05-10T02:37:20;18.0;66.5
78461;SHT31;67755;51.986;5.696;2023-05-10T02:39:53;18.1;66.3
78461;SHT31;67755;51.986;5.696;2023-05-10T02:42:27;18.1;66.3
78461;SHT31;67755;51.986;5.696;2023-05-10T02:45:01;18.1;66.2
78461;SHT31;67755;51.986;5.696;2023-05-10T02:47:33;18.0;66.2
78461;SHT31;67755;51.986;5.696;2023-05-10T02:50:03;18.0;66.1
78461;SHT31;67755;51.986;5.696;2023-05-10T02:52:39;18.0;65.9
78461;SHT31;67755;51.986;5.696;2023-05-10T02:55:12;18.0;66.2
78461;SHT31;67755;51.986;5.696;2023-05-10T02:57:48;18.0;66.2
78461;SHT31;67755;51.986;5.696;2023-05-10T03:00:23;18.0;66.1
78461;SHT31;67755;51.986;5.696;2023-05-10T03:02:53;18.0;66.1
78461;SHT31;67755;51.986;5.696;2023-05-10T03:05:25;18.0;65.5
78461;SHT31;67755;51.986;5.696;2023-05-10T03:07:55;18.0;65.5
78461;SHT31;67755;51.986;5.696;2023-05-10T03:10:27;18.0;65.5
78461;SHT31;67755;51.986;5.696;2023-05-10T03:13:10;18.0;65.3
78461;SHT31;67755;51.986;5.696;2023-05-10T03:15:50;18.0;65.4
78461;SHT31;67755;51.986;5.696;2023-05-10T03:18:32;18.0;64.8
78461;SHT31;67755;51.986;5.696;2023-05-10T03:21:07;18.0;64.7
78461;SHT31;67755;51.986;5.696;2023-05-10T03:23:43;17.9;65.1
78461;SHT31;67755;51.986;5.696;2023-05-10T03:26:17;17.9;65.0
78461;SHT31;67755;51.986;5.696;2023-05-10T03:28:49;17.9;65.0
78461;SHT31;67755;51.986;5.696;2023-05-10T03:31:19;17.9;65.3
78461;SHT31;67755;51.986;5.696;2023-05-10T03:33:50;17.9;65.2
78461;SHT31;67755;51.986;5.696;2023-05-10T03:36:20;17.9;65.0
78461;SHT31;67755;51.986;5.696;2023-05-10T03:38:51;17.9;65.2
78461;SHT31;67755;51.986;5.696;2023-05-10T03:41:21;17.9;65.2
78461;SHT31;67755;51.986;5.696;2023-05-10T03:43:50;17.9;65.4
78461;SHT31;67755;51.986;5.696;2023-05-10T03:46:20;17.9;65.1
78461;SHT31;67755;51.986;5.696;2023-05-10T03:48:49;17.9;65.1
78461;SHT31;67755;51.986;5.696;2023-05-10T03:51:19;17.9;65.3
78461;SHT31;67755;51.986;5.696;2023-05-10T03:53:49;17.8;64.8
78461;SHT31;67755;51.986;5.696;2023-05-10T03:56:19;17.8;65.2
78461;SHT31;67755;51.986;5.696;2023-05-10T03:58:48;17.8;65.4
78461;SHT31;67755;51.986;5.696;2023-05-10T04:01:18;17.8;65.5
78461;SHT31;67755;51.986;5.696;2023-05-10T04:03:47;17.8;65.5
78461;SHT31;67755;51.986;5.696;2023-05-10T04:06:19;17.7;65.3
78461;SHT31;67755;51.986;5.696;2023-05-10T04:08:48;17.7;65.6
78461;SHT31;67755;51.986;5.696;2023-05-10T04:11:18;17.7;65.8
78461;SHT31;67755;51.986;5.696;2023-05-10T04:13:49;17.7;65.8
78461;SHT31;67755;51.986;5.696;2023-05-10T04:16:18;17.7;65.9
78461;SHT31;67755;51.986;5.696;2023-05-10T04:18:48;17.7;65.9
78461;SHT31;67755;51.986;5.696;2023-05-10T04:21:17;17.7;65.9
78461;SHT31;67755;51.986;5.696;2023-05-10T04:23:47;17.7;65.8
78461;SHT31;67755;51.986;5.696;2023-05-10T04:26:17;17.7;66.1
78461;SHT31;67755;51.986;5.696;2023-05-10T04:28:47;17.7;66.1
78461;SHT31;67755;51.986;5.696;2023-05-10T04:31:17;17.8;65.7
78461;SHT31;67755;51.986;5.696;2023-05-10T04:33:46;17.8;65.8
78461;SHT31;67755;51.986;5.696;2023-05-10T04:36:17;17.8;65.2
78461;SHT31;67755;51.986;5.696;2023-05-10T04:38:47;17.8;65.4
78461;SHT31;67755;51.986;5.696;2023-05-10T04:41:16;17.8;65.4
78461;SHT31;67755;51.986;5.696;2023-05-10T04:43:46;17.8;65.5
78461;SHT31;67755;51.986;5.696;2023-05-10T04:46:16;17.8;65.6
78461;SHT31;67755;51.986;5.696;2023-05-10T04:48:46;17.8;65.4
78461;SHT31;67755;51.986;5.696;2023-05-10T04:51:15;17.8;65.3
78461;SHT31;67755;51.986;5.696;2023-05-10T04:53:45;17.8;65.8
78461;SHT31;67755;51.986;5.696;2023-05-10T04:56:14;17.8;65.6
78461;SHT31;67755;51.986;5.696;2023-05-10T04:58:44;17.8;65.8
78461;SHT31;67755;51.986;5.696;2023-05-10T05:01:13;17.8;65.6
78461;SHT31;67755;51.986;5.696;2023-05-10T05:03:43;17.8;65.6
78461;SHT31;67755;51.986;5.696;2023-05-10T05:06:13;17.8;65.4
78461;SHT31;67755;51.986;5.696;2023-05-10T05:08:42;17.8;65.3
78461;SHT31;67755;51.986;5.696;2023-05-10T05:11:12;17.8;65.7
78461;SHT31;67755;51.986;5.696;2023-05-10T05:13:41;17.8;65.6
78461;SHT31;67755;51.986;5.696;2023-05-10T05:16:13;17.7;66.2
78461;SHT31;67755;51.986;5.696;2023-05-10T05:18:42;17.7;66.1
78461;SHT31;67755;51.986;5.696;2023-05-10T05:21:16;17.7;66.1
78461;SHT31;67755;51.986;5.696;2023-05-10T05:23:46;17.7;66.0
78461;SHT31;67755;51.986;5.696;2023-05-10T05:26:15;17.8;66.3
78461;SHT31;67755;51.986;5.696;2023-05-10T05:28:47;17.8;66.5
78461;SHT31;67755;51.986;5.696;2023-05-10T05:31:20;17.8;66.2
78461;SHT31;67755;51.986;5.696;2023-05-10T05:33:49;17.8;66.2
78461;SHT31;67755;51.986;5.696;2023-05-10T05:36:21;17.8;65.9
78461;SHT31;67755;51.986;5.696;2023-05-10T05:38:51;17.8;66.1
78461;SHT31;67755;51.986;5.696;2023-05-10T05:41:21;17.8;66.4
78461;SHT31;67755;51.986;5.696;2023-05-10T05:43:51;17.8;66.3
78461;SHT31;67755;51.986;5.696;2023-05-10T05:46:20;17.8;66.0
78461;SHT31;67755;51.986;5.696;2023-05-10T05:48:50;17.8;66.3
78461;SHT31;67755;51.986;5.696;2023-05-10T05:51:19;17.8;66.1
78461;SHT31;67755;51.986;5.696;2023-05-10T05:53:49;17.8;65.8
78461;SHT31;67755;51.986;5.696;2023-05-10T05:56:18;17.8;66.4
78461;SHT31;67755;51.986;5.696;2023-05-10T05:58:51;17.8;66.3
78461;SHT31;67755;51.986;5.696;2023-05-10T06:01:21;17.8;66.4
78461;SHT31;67755;51.986;5.696;2023-05-10T06:03:50;17.8;66.3
78461;SHT31;67755;51.986;5.696;2023-05-10T06:06:22;17.8;66.3
78461;SHT31;67755;51.986;5.696;2023-05-10T06:08:54;17.8;66.2
78461;SHT31;67755;51.986;5.696;2023-05-10T06:11:23;17.8;66.6
78461;SHT31;67755;51.986;5.696;2023-05-10T06:13:55;17.8;66.5
78461;SHT31;67755;51.986;5.696;2023-05-10T06:16:25;17.8;66.6
78461;SHT31;67755;51.986;5.696;2023-05-10T06:18:54;17.8;66.7
78461;SHT31;67755;51.986;5.696;2023-05-10T06:21:24;17.8;66.9
78461;SHT31;67755;51.986;5.696;2023-05-10T06:23:54;17.8;67.0
78461;SHT31;67755;51.986;5.696;2023-05-10T06:26:23;17.8;66.7
78461;SHT31;67755;51.986;5.696;2023-05-10T06:28:53;17.8;66.9
78461;SHT31;67755;51.986;5.696;2023-05-10T06:31:22;17.8;67.0
78461;SHT31;67755;51.986;5.696;2023-05-10T06:33:52;17.8;67.1
78461;SHT31;67755;51.986;5.696;2023-05-10T06:36:22;17.8;67.0
78461;SHT31;67755;51.986;5.696;2023-05-10T06:38:53;17.8;67.2
78461;SHT31;67755;51.986;5.696;2023-05-10T06:41:23;17.8;67.3
78461;SHT31;67755;51.986;5.696;2023-05-10T06:43:53;17.8;66.8
78461;SHT31;67755;51.986;5.696;2023-05-10T06:46:23;17.9;66.8
78461;SHT31;67755;51.986;5.696;2023-05-10T06:48:52;17.9;67.0
78461;SHT31;67755;51.986;5.696;2023-05-10T06:51:22;17.9;67.6
78461;SHT31;67755;51.986;5.696;2023-05-10T06:53:52;17.9;67.5
78461;SHT31;67755;51.986;5.696;2023-05-10T06:56:22;17.9;67.4
78461;SHT31;67755;51.986;5.696;2023-05-10T06:58:51;17.9;67.3
78461;SHT31;67755;51.986;5.696;2023-05-10T07:01:23;17.9;67.0
78461;SHT31;67755;51.986;5.696;2023-05-10T07:03:52;17.9;67.0
78461;SHT31;67755;51.986;5.696;2023-05-10T07:06:22;17.9;67.0
78461;SHT31;67755;51.986;5.696;2023-05-10T07:08:52;17.9;66.9
78461;SHT31;67755;51.986;5.696;2023-05-10T07:11:22;17.9;66.6
78461;SHT31;67755;51.986;5.696;2023-05-10T07:13:51;17.9;66.6
78461;SHT31;67755;51.986;5.696;2023-05-10T07:16:21;17.9;66.8
78461;SHT31;67755;51.986;5.696;2023-05-10T07:18:51;17.9;67.0
78461;SHT31;67755;51.986;5.696;2023-05-10T07:21:20;17.9;67.2
78461;SHT31;67755;51.986;5.696;2023-05-10T07:23:51;17.9;67.4
78461;SHT31;67755;51.986;5.696;2023-05-10T07:26:22;17.9;67.4
78461;SHT31;67755;51.986;5.696;2023-05-10T07:28:52;17.9;67.1
78461;SHT31;67755;51.986;5.696;2023-05-10T07:31:22;18.0;67.2
78461;SHT31;67755;51.986;5.696;2023-05-10T07:33:51;18.0;67.2
78461;SHT31;67755;51.986;5.696;2023-05-10T07:36:21;18.0;67.3
78461;SHT31;67755;51.986;5.696;2023-05-10T07:38:51;18.0;67.0
78461;SHT31;67755;51.986;5.696;2023-05-10T07:41:21;18.0;66.8
78461;SHT31;67755;51.986;5.696;2023-05-10T07:43:50;18.0;67.1
78461;SHT31;67755;51.986;5.696;2023-05-10T07:46:20;18.1;67.3
78461;SHT31;67755;51.986;5.696;2023-05-10T07:48:49;18.1;67.6
78461;SHT31;67755;51.986;5.696;2023-05-10T07:51:19;18.1;67.2
78461;SHT31;67755;51.986;5.696;2023-05-10T07:53:49;18.1;67.1
78461;SHT31;67755;51.986;5.696;2023-05-10T07:56:23;18.2;66.8
78461;SHT31;67755;51.986;5.696;2023-05-10T07:58:57;18.2;66.3
78461;SHT31;67755;51.986;5.696;2023-05-10T08:01:31;18.2;66.4
78461;SHT31;67755;51.986;5.696;2023-05-10T08:04:01;18.3;66.6
78461;SHT31;67755;51.986;5.696;2023-05-10T08:06:31;18.3;66.3
78461;SHT31;67755;51.986;5.696;2023-05-10T08:09:00;18.3;65.4
78461;SHT31;67755;51.986;5.696;2023-05-10T08:11:32;18.3;65.2
78461;SHT31;67755;51.986;5.696;2023-05-10T08:14:04;18.3;65.5
78461;SHT31;67755;51.986;5.696;2023-05-10T08:16:34;18.3;65.3
78461;SHT31;67755;51.986;5.696;2023-05-10T08:19:03;18.3;65.7
78461;SHT31;67755;51.986;5.696;2023-05-10T08:21:33;18.3;63.5
78461;SHT31;67755;51.986;5.696;2023-05-10T08:24:04;18.3;64.5
78461;SHT31;67755;51.986;5.696;2023-05-10T08:26:34;18.3;65.0
78461;SHT31;67755;51.986;5.696;2023-05-10T08:29:03;18.3;65.1
78461;SHT31;67755;51.986;5.696;2023-05-10T08:31:33;18.3;64.1
78461;SHT31;67755;51.986;5.696;2023-05-10T08:34:03;18.3;64.3
78461;SHT31;67755;51.986;5.696;2023-05-10T08:36:32;18.3;64.4
78461;SHT31;67755;51.986;5.696;2023-05-10T08:39:02;18.3;64.6
78461;SHT31;67755;51.986;5.696;2023-05-10T08:41:33;18.3;64.6
78461;SHT31;67755;51.986;5.696;2023-05-10T08:44:04;18.3;64.8
78461;SHT31;67755;51.986;5.696;2023-05-10T08:46:38;18.3;65.1
78461;SHT31;67755;51.986;5.696;2023-05-10T08:49:13;18.3;65.0
78461;SHT31;67755;51.986;5.696;2023-05-10T08:51:51;18.3;64.4
78461;SHT31;67755;51.986;5.696;2023-05-10T08:54:21;18.3;64.2
78461;SHT31;67755;51.986;5.696;2023-05-10T08:56:53;18.4;64.2
78461;SHT31;67755;51.986;5.696;2023-05-10T08:59:23;18.4;63.9
78461;SHT31;67755;51.986;5.696;2023-05-10T09:01:56;18.4;64.4
78461;SHT31;67755;51.986;5.696;2023-05-10T09:04:27;18.5;64.2
78461;SHT31;67755;51.986;5.696;2023-05-10T09:06:57;18.5;63.8
78461;SHT31;67755;51.986;5.696;2023-05-10T09:09:27;18.5;62.5
78461;SHT31;67755;51.986;5.696;2023-05-10T09:11:57;18.6;64.1
78461;SHT31;67755;51.986;5.696;2023-05-10T09:14:27;18.6;63.5
78461;SHT31;67755;51.986;5.696;2023-05-10T09:16:57;18.6;62.5
78461;SHT31;67755;51.986;5.696;2023-05-10T09:19:27;18.7;63.7
78461;SHT31;67755;51.986;5.696;2023-05-10T09:21:57;18.7;64.6
78461;SHT31;67755;51.986;5.696;2023-05-10T09:24:29;18.7;63.2
78461;SHT31;67755;51.986;5.696;2023-05-10T09:26:59;18.8;62.7
78461;SHT31;67755;51.986;5.696;2023-05-10T09:29:42;18.8;62.8
78461;SHT31;67755;51.986;5.696;2023-05-10T09:32:14;18.8;61.9
78461;SHT31;67755;51.986;5.696;2023-05-10T09:34:44;18.9;62.0
78461;SHT31;67755;51.986;5.696;2023-05-10T09:37:13;18.9;60.4
78461;SHT31;67755;51.986;5.696;2023-05-10T09:39:43;18.9;60.8
78461;SHT31;67755;51.986;5.696;2023-05-10T09:42:13;18.9;61.0
78461;SHT31;67755;51.986;5.696;2023-05-10T09:44:44;18.9;61.3
78461;SHT31;67755;51.986;5.696;2023-05-10T09:47:18;18.9;60.6
78461;SHT31;67755;51.986;5.696;2023-05-10T09:49:51;19.0;61.6
78461;SHT31;67755;51.986;5.696;2023-05-10T09:52:23;19.0;62.0
78461;SHT31;67755;51.986;5.696;2023-05-10T09:54:54;19.0;62.9
78461;SHT31;67755;51.986;5.696;2023-05-10T09:57:24;19.0;60.3
78461;SHT31;67755;51.986;5.696;2023-05-10T09:59:57;19.0;60.8
78461;SHT31;67755;51.986;5.696;2023-05-10T10:02:33;19.0;61.1
78461;SHT31;67755;51.986;5.696;2023-05-10T10:05:02;19.1;60.8
78461;SHT31;67755;51.986;5.696;2023-05-10T10:07:32;19.1;60.6
78461;SHT31;67755;51.986;5.696;2023-05-10T10:10:03;19.1;61.2
78461;SHT31;67755;51.986;5.696;2023-05-10T10:12:38;19.1;61.4
78461;SHT31;67755;51.986;5.696;2023-05-10T10:15:10;19.1;60.8
78461;SHT31;67755;51.986;5.696;2023-05-10T10:17:41;19.2;60.9
78461;SHT31;67755;51.986;5.696;2023-05-10T10:20:13;19.2;59.6
78461;SHT31;67755;51.986;5.696;2023-05-10T10:22:43;19.2;60.1
78461;SHT31;67755;51.986;5.696;2023-05-10T10:25:16;19.2;60.4
78461;SHT31;67755;51.986;5.696;2023-05-10T10:27:59;19.2;60.4
78461;SHT31;67755;51.986;5.696;2023-05-10T10:30:27;19.3;60.1
78461;SHT31;67755;51.986;5.696;2023-05-10T10:33:18;19.3;61.4
78461;SHT31;67755;51.986;5.696;2023-05-10T10:35:50;19.3;60.8
78461;SHT31;67755;51.986;5.696;2023-05-10T10:38:23;19.3;60.9
78461;SHT31;67755;51.986;5.696;2023-05-10T10:41:09;19.4;58.7
78461;SHT31;67755;51.986;5.696;2023-05-10T10:43:39;19.4;61.0
78461;SHT31;67755;51.986;5.696;2023-05-10T10:46:13;19.4;61.2
78461;SHT31;67755;51.986;5.696;2023-05-10T10:48:47;19.4;59.3
78461;SHT31;67755;51.986;5.696;2023-05-10T10:51:18;19.4;59.9
78461;SHT31;67755;51.986;5.696;2023-05-10T10:53:48;19.5;60.9
78461;SHT31;67755;51.986;5.696;2023-05-10T10:56:22;19.5;61.4
78461;SHT31;67755;51.986;5.696;2023-05-10T10:58:51;19.5;60.8
78461;SHT31;67755;51.986;5.696;2023-05-10T11:01:21;19.5;60.5
78461;SHT31;67755;51.986;5.696;2023-05-10T11:04:18;19.5;60.1
78461;SHT31;67755;51.986;5.696;2023-05-10T11:06:49;19.5;58.9
78461;SHT31;67755;51.986;5.696;2023-05-10T11:09:18;19.5;58.0
78461;SHT31;67755;51.986;5.696;2023-05-10T11:11:53;19.5;59.2
78461;SHT31;67755;51.986;5.696;2023-05-10T11:14:25;19.5;58.9
78461;SHT31;67755;51.986;5.696;2023-05-10T11:16:55;19.6;59.7
78461;SHT31;67755;51.986;5.696;2023-05-10T11:19:27;19.6;58.8
78461;SHT31;67755;51.986;5.696;2023-05-10T11:22:13;19.6;60.5
78461;SHT31;67755;51.986;5.696;2023-05-10T11:24:57;19.6;59.7
78461;SHT31;67755;51.986;5.696;2023-05-10T11:27:28;19.6;59.4
78461;SHT31;67755;51.986;5.696;2023-05-10T11:29:57;19.6;59.1
78461;SHT31;67755;51.986;5.696;2023-05-10T11:32:27;19.7;59.1
78461;SHT31;67755;51.986;5.696;2023-05-10T11:34:57;19.7;59.2
78461;SHT31;67755;51.986;5.696;2023-05-10T11:37:30;19.7;60.7
78461;SHT31;67755;51.986;5.696;2023-05-10T11:40:01;19.7;59.2
78461;SHT31;67755;51.986;5.696;2023-05-10T11:42:31;19.7;59.9
78461;SHT31;67755;51.986;5.696;2023-05-10T11:45:04;19.7;58.6
78461;SHT31;67755;51.986;5.696;2023-05-10T11:47:34;19.8;58.6
78461;SHT31;67755;51.986;5.696;2023-05-10T11:50:05;19.8;57.9
78461;SHT31;67755;51.986;5.696;2023-05-10T11:52:37;19.8;59.7
78461;SHT31;67755;51.986;5.696;2023-05-10T11:55:07;19.8;58.1
78461;SHT31;67755;51.986;5.696;2023-05-10T11:57:37;19.8;60.8
78461;SHT31;67755;51.986;5.696;2023-05-10T12:00:10;19.9;60.6
78461;SHT31;67755;51.986;5.696;2023-05-10T12:02:40;19.9;58.6
78461;SHT31;67755;51.986;5.696;2023-05-10T12:05:10;19.9;57.0
78461;SHT31;67755;51.986;5.696;2023-05-10T12:07:40;20.0;56.2
78461;SHT31;67755;51.986;5.696;2023-05-10T12:10:17;20.0;57.3
78461;SHT31;67755;51.986;5.696;2023-05-10T12:12:52;20.0;59.3
78461;SHT31;67755;51.986;5.696;2023-05-10T12:15:23;20.0;60.1
78461;SHT31;67755;51.986;5.696;2023-05-10T12:17:57;20.0;58.7
78461;SHT31;67755;51.986;5.696;2023-05-10T12:20:28;20.1;57.8
78461;SHT31;67755;51.986;5.696;2023-05-10T12:22:59;20.1;59.6
78461;SHT31;67755;51.986;5.696;2023-05-10T12:25:32;20.1;56.5
78461;SHT31;67755;51.986;5.696;2023-05-10T12:28:04;20.2;56.6
78461;SHT31;67755;51.986;5.696;2023-05-10T12:30:35;20.2;55.8
78461;SHT31;67755;51.986;5.696;2023-05-10T12:33:10;20.2;58.3
78461;SHT31;67755;51.986;5.696;2023-05-10T12:35:48;20.2;57.5
78461;SHT31;67755;51.986;5.696;2023-05-10T12:38:26;20.3;57.3
78461;SHT31;67755;51.986;5.696;2023-05-10T12:40:58;20.3;56.3
78461;SHT31;67755;51.986;5.696;2023-05-10T12:43:28;20.4;55.2
78461;SHT31;67755;51.986;5.696;2023-05-10T12:45:58;20.4;55.3
78461;SHT31;67755;51.986;5.696;2023-05-10T12:48:28;20.4;58.2
78461;SHT31;67755;51.986;5.696;2023-05-10T12:50:58;20.5;59.2
78461;SHT31;67755;51.986;5.696;2023-05-10T12:53:28;20.5;57.0
78461;SHT31;67755;51.986;5.696;2023-05-10T12:55:59;20.5;56.1
78461;SHT31;67755;51.986;5.696;2023-05-10T12:58:29;20.6;54.8
78461;SHT31;67755;51.986;5.696;2023-05-10T13:00:59;20.6;57.5
78461;SHT31;67755;51.986;5.696;2023-05-10T13:03:29;20.6;56.2
78461;SHT31;67755;51.986;5.696;2023-05-10T13:05:58;20.6;57.8
78461;SHT31;67755;51.986;5.696;2023-05-10T13:08:28;20.7;57.0
78461;SHT31;67755;51.986;5.696;2023-05-10T13:11:01;20.7;55.3
78461;SHT31;67755;51.986;5.696;2023-05-10T13:13:31;20.7;55.3
78461;SHT31;67755;51.986;5.696;2023-05-10T13:16:01;20.7;57.0
78461;SHT31;67755;51.986;5.696;2023-05-10T13:18:30;20.7;55.8
78461;SHT31;67755;51.986;5.696;2023-05-10T13:21:00;20.7;56.2
78461;SHT31;67755;51.986;5.696;2023-05-10T13:23:31;20.7;54.7
78461;SHT31;67755;51.986;5.696;2023-05-10T13:26:01;20.6;55.8
78461;SHT31;67755;51.986;5.696;2023-05-10T13:28:30;20.6;56.2
78461;SHT31;67755;51.986;5.696;2023-05-10T13:31:00;20.5;56.9
78461;SHT31;67755;51.986;5.696;2023-05-10T13:33:30;20.5;57.7
78461;SHT31;67755;51.986;5.696;2023-05-10T13:35:59;20.4;58.0
78461;SHT31;67755;51.986;5.696;2023-05-10T13:38:29;20.4;59.2
78461;SHT31;67755;51.986;5.696;2023-05-10T13:40:58;20.3;59.7
78461;SHT31;67755;51.986;5.696;2023-05-10T13:43:29;20.3;60.0
78461;SHT31;67755;51.986;5.696;2023-05-10T13:45:58;20.2;59.5
78461;SHT31;67755;51.986;5.696;2023-05-10T13:48:28;20.2;60.7
78461;SHT31;67755;51.986;5.696;2023-05-10T13:50:58;20.2;61.2
78461;SHT31;67755;51.986;5.696;2023-05-10T13:53:27;20.1;61.3
78461;SHT31;67755;51.986;5.696;2023-05-10T13:55:57;20.1;61.4
78461;SHT31;67755;51.986;5.696;2023-05-10T13:58:26;20.0;61.0
78461;SHT31;67755;51.986;5.696;2023-05-10T14:00:56;20.0;60.7
78461;SHT31;67755;51.986;5.696;2023-05-10T14:03:25;19.9;60.8
78461;SHT31;67755;51.986;5.696;2023-05-10T14:05:55;19.9;60.3
78461;SHT31;67755;51.986;5.696;2023-05-10T14:08:25;19.9;59.8
78461;SHT31;67755;51.986;5.696;2023-05-10T14:10:55;19.8;60.3
78461;SHT31;67755;51.986;5.696;2023-05-10T14:13:25;19.8;60.8
78461;SHT31;67755;51.986;5.696;2023-05-10T14:15:55;19.7;60.9
78461;SHT31;67755;51.986;5.696;2023-05-10T14:18:28;19.7;60.8
78461;SHT31;67755;51.986;5.696;2023-05-10T14:20:58;19.7;61.2
78461;SHT31;67755;51.986;5.696;2023-05-10T14:23:27;19.7;61.7
78461;SHT31;67755;51.986;5.696;2023-05-10T14:25:57;19.7;61.9
78461;SHT31;67755;51.986;5.696;2023-05-10T14:28:27;19.6;61.7
78461;SHT31;67755;51.986;5.696;2023-05-10T14:30:56;19.6;61.7
78461;SHT31;67755;51.986;5.696;2023-05-10T14:33:26;19.6;62.3
78461;SHT31;67755;51.986;5.696;2023-05-10T14:35:56;19.6;61.4
78461;SHT31;67755;51.986;5.696;2023-05-10T14:38:27;19.6;62.7
78461;SHT31;67755;51.986;5.696;2023-05-10T14:40:57;19.6;63.5
78461;SHT31;67755;51.986;5.696;2023-05-10T14:43:26;19.6;63.7
78461;SHT31;67755;51.986;5.696;2023-05-10T14:45:58;19.6;63.4
78461;SHT31;67755;51.986;5.696;2023-05-10T14:48:27;19.6;63.7
78461;SHT31;67755;51.986;5.696;2023-05-10T14:50:57;19.6;64.1
78461;SHT31;67755;51.986;5.696;2023-05-10T14:53:28;19.6;63.6
78461;SHT31;67755;51.986;5.696;2023-05-10T14:55:58;19.6;64.1
78461;SHT31;67755;51.986;5.696;2023-05-10T14:58:29;19.6;63.8
78461;SHT31;67755;51.986;5.696;2023-05-10T15:00:59;19.6;63.7
78461;SHT31;67755;51.986;5.696;2023-05-10T15:03:28;19.6;63.5
78461;SHT31;67755;51.986;5.696;2023-05-10T15:06:00;19.6;63.6
78461;SHT31;67755;51.986;5.696;2023-05-10T15:08:30;19.7;63.0
78461;SHT31;67755;51.986;5.696;2023-05-10T15:10:59;19.7;62.6
78461;SHT31;67755;51.986;5.696;2023-05-10T15:13:30;19.7;63.6
78461;SHT31;67755;51.986;5.696;2023-05-10T15:15:59;19.7;62.9
78461;SHT31;67755;51.986;5.696;2023-05-10T15:18:29;19.7;62.9
78461;SHT31;67755;51.986;5.696;2023-05-10T15:20:59;19.7;62.1
78461;SHT31;67755;51.986;5.696;2023-05-10T15:23:28;19.7;62.7
78461;SHT31;67755;51.986;5.696;2023-05-10T15:25:58;19.7;62.8
78461;SHT31;67755;51.986;5.696;2023-05-10T15:28:27;19.7;63.0
78461;SHT31;67755;51.986;5.696;2023-05-10T15:30:57;19.7;62.2
78461;SHT31;67755;51.986;5.696;2023-05-10T15:33:27;19.7;63.3
78461;SHT31;67755;51.986;5.696;2023-05-10T15:35:59;19.8;64.1
78461;SHT31;67755;51.986;5.696;2023-05-10T15:38:28;19.8;64.2
78461;SHT31;67755;51.986;5.696;2023-05-10T15:40:58;19.8;63.7
78461;SHT31;67755;51.986;5.696;2023-05-10T15:43:28;19.8;62.5
78461;SHT31;67755;51.986;5.696;2023-05-10T15:45:58;19.9;63.2
78461;SHT31;67755;51.986;5.696;2023-05-10T15:48:27;19.9;63.9
78461;SHT31;67755;51.986;5.696;2023-05-10T15:50:58;19.9;62.6
78461;SHT31;67755;51.986;5.696;2023-05-10T15:53:30;19.9;62.2
78461;SHT31;67755;51.986;5.696;2023-05-10T15:55:59;20.0;63.2
78461;SHT31;67755;51.986;5.696;2023-05-10T15:58:29;20.0;62.8
78461;SHT31;67755;51.986;5.696;2023-05-10T16:00:59;20.0;62.5
78461;SHT31;67755;51.986;5.696;2023-05-10T16:03:28;20.0;62.2
78461;SHT31;67755;51.986;5.696;2023-05-10T16:06:00;20.1;60.8
78461;SHT31;67755;51.986;5.696;2023-05-10T16:08:30;20.1;61.3
78461;SHT31;67755;51.986;5.696;2023-05-10T16:11:00;20.1;61.5
78461;SHT31;67755;51.986;5.696;2023-05-10T16:13:31;20.1;62.0
78461;SHT31;67755;51.986;5.696;2023-05-10T16:16:01;20.1;61.5
78461;SHT31;67755;51.986;5.696;2023-05-10T16:18:31;20.1;60.5
78461;SHT31;67755;51.986;5.696;2023-05-10T16:21:01;20.1;61.3
78461;SHT31;67755;51.986;5.696;2023-05-10T16:23:32;20.1;61.8
78461;SHT31;67755;51.986;5.696;2023-05-10T16:26:03;20.1;60.0
78461;SHT31;67755;51.986;5.696;2023-05-10T16:28:34;20.1;60.0
78461;SHT31;67755;51.986;5.696;2023-05-10T16:31:05;20.1;61.0